Terminal Aerodrome Forecast
Issued by NWS Wilmington, OH

Current Version | Previous Version | Text Only | Print | Product List | Glossary Off
Versions: 1 2 3 4 5 6 7 8 9 10 11 12 13 14 15 16 17 18 19 20 21 22 23

000
FTUS41 KILN 010500
TAFCMH
TAF
KCMH 010529Z 0106/0206 03010G16KT P6SM BKN017 OVC040
     FM011000 36008KT 4SM BR OVC006
     FM011400 01010KT P6SM VCSH OVC015
     FM012000 01010KT P6SM OVC025=

USA.gov is the U.S. government's official web portal to all federal, state and local government web resources and services.